Warning: Javascript must be enabled to use all the features on this page!


Page Loading - Please Wait...

Click to hideNews Bulletins

Peak Streamflow for the Nation

USGS 11446500 AMERICAN R A FAIR OAKS CA

Sacramento County, California
Hydrologic Unit Code 18020111
Latitude  38°38'08", Longitude 121°13'36" NAD27
Drainage area 1,888  square miles
Gage datum 71.53 feet above NGVD29
Output formats
Table
Graph
Tab-separated file
peakfq (watstore) format
Reselect output format
Water
Year
Date Gage
Height
(feet)
Stream-
flow
(cfs)
1862 1862-01-10 38.00 318,0002,7
1905 1905-03-19 11.20 24,200
1906 1906-01-18   59,700
1907 1907-03-19 30.40 156,000
1908 1907-12-27   10,300
1909 1909-01-14 26.70 119,000
1910 1909-12-02   47,0001
1911 1911-01-31 21.90 81,300
1912 1912-06-02   12,100
1913 1913-05-18 8.80 12,700
1914 1914-01-01 16.00 74,100
1915 1915-05-12 15.04 47,900
1916 1916-01-03 13.70 40,700
1917 1917-02-25 13.98 42,300
1919 1919-02-11 18.50 67,500
1920 1920-04-16 10.70 20,100
1921 1921-01-18 14.10 39,200
1922 1922-02-20 12.50 31,600
1923 1922-12-13 14.20 39,000
1924 1924-02-08 7.75 14,000
1925 1925-02-06 25.00 99,500
1926 1926-04-06 11.60 27,400
1927 1927-02-21 19.40 67,700
1928 1928-03-25 31.45 163,000
1929 1929-06-16 11.30 26,000
1930 1930-03-05 11.33 24,400
1931 1931-03-18 8.876 9,900
1932 1932-02-07 12.60 21,100
1933 1933-05-30 11.52 16,500
1934 1934-01-01 13.50 22,600
1935 1935-04-08 20.73 60,900
1936 1936-02-22 20.70 58,300
1937 1937-03-21 15.88 33,000
1938 1937-12-11 29.06 114,000
1939 1939-03-09 9.72 10,900
1940 1940-03-30 25.57 89,200
1941 1940-12-27 16.90 38,800
1942 1942-01-27 24.65 83,200
1943 1943-01-22 31.00 152,000
1944 1944-03-04 12.50 20,100
1945 1945-02-02 25.25 94,400
1946 1945-12-22 15.85 42,200
1947 1947-02-13 12.60 27,900
1948 1948-04-17 10.68 21,000
1949 1949-03-03 14.66 37,500
1950 1950-01-23 14.00 34,400
1951 1950-11-21 31.85 180,000
1952 1952-02-02 13.83 37,200
1953 1953-01-09 16.30 49,700
1954 1954-03-09 15.28 42,600
1955 1955-01-02 7.34 10,8006
1956 1955-12-23 20.35 71,5006
1957 1957-03-06 12.69 29,9006
1958 1958-04-07 12.206 36,2006
1959 1959-07-30 4.46 6,3006
1960 1960-03-16 4.00 5,2806
1961 1961-07-19 3.83 4,7206
1962 1962-03-04 5.12 8,2306
1963 1963-02-02 21.44 101,0006
1964 1963-12-07 3.98 5,2106
1965 1964-12-23 21.65 115,0006
1966 1966-03-18 3.77 4,1106
1967 1967-01-31 10.26 37,0006
1968 1968-03-08 4.20 8,3506
1969 1969-01-23 15.64 73,4006
1970 1970-01-19 12.826 56,7006
1971 1971-01-15 9.73 8,2706
1972 1972-02-09 8.89 6,0606
1973 1973-01-14 15.42 32,7006
1974 1974-01-17 14.46 27,6006
1975 1975-03-25 9.85 8,4506
1976 1975-10-17 7.79 3,7706
1977 1976-12-06 6.56 1,9206
1978 1978-05-05 9.92 8,6606
1979 1979-02-23 12.14 16,5006
1980 1980-01-15 23.27 84,8006
1981 1981-06-09 8.42 5,1406
1982 1982-02-16 23.92 91,1006
1983 1982-12-22 16.14 36,2006
1984 1983-12-28 18.18 48,5006
1985 1984-12-07 7.57 5,2006
1986 1986-02-19 27.96 134,0006
1987 1986-10-02 7.65 4,3606
1988 1988-07-21 7.79 4,6106
1989 1989-03-25 14.24 25,4006
1990 1990-07-11 9.30 8,1006
1991 1991-07-10 7.64 4,6406
1992 1992-06-27 7.88 5,0606
1993 1993-01-21 12.05 16,2006
1994 1993-12-11 7.95 5,4806
1995 1995-03-12 18.70 51,3006
1996 1996-05-17 18.58 50,6006
1997 1997-01-02 26.40 117,0006
1998 1998-02-04 15.74 33,8006
1999 1999-02-10 13.77 24,2006
2000 2000-02-17 13.87 24,6006
2001 2001-06-08 6.15 3,3606
2002 2002-04-14 6.61 4,0806
2003 2003-06-05 8.22 7,0506
2004 2004-04-07 8.72 8,1206
2005 2005-05-20 14.21 26,4006
2006 2005-12-31 16.40 37,3006
2007 2007-06-26 6.95 4,6406
2008 2008-06-11 6.78 4,5906
2009 2009-07-08 7.93 6,2706
2010 2010-06-07 9.47 8,7406
2011 2010-12-15 15.39 31,2006
2012 2012-05-01 8.81 7,9506
2013 2012-12-24 9.68 9,9806
2014 2014-06-19 6.00 2,6206
2015 2015-07-20 6.93 4,1606
2016 2016-03-14 13.08 20,6006
2017 2017-02-10 23.17 85,4006
2018 2018-04-07 14.04 24,8006
2019 2019-02-26 14.25 25,7006
2020 2020-07-17 8.75 4,3406
?
  Peak Gage-Height Qualification Codes.
?
  Peak Streamflow Qualification Codes.